Hunter, New York
Current Conditions -  °F | °C
As of 12:51 PM on Monday 26 Jan 2015 (Local Time) from KALB Reporting Station
Overcast Overcast  
Wind Chill:   Ceiling: 5500
Heat Index: 16°   Visibility: 10mi
Dew Point: -1°   Wind: 7mph
Humidity: 47%   Direction: 340°NNW
Pressure: 30.06"   Gusts: NA
Location:  42.21°N, 74.22°W
Report Text: KALB 261751Z 34006KT 10SM BKN055 OVC070 M09/M18 A3006 RMK AO2 SLP183 SHSN DSNT SW-W T10891183 11089 21122 58021
Loading
Personal Weather Stations






























Interactive Weather Map New forecast layout! Learn more

10-Day Weather Forecast

Advertisements
Track Severe Weather on mobile